Time;durP1;ratioP1;P1;durP2;ratioP2;P2;SDS_P1;SDS_P2;PMS_P1;PMS_P2;Temp;Humidity;BMP_temperature;BMP_pressure;BME280_temperature;BME280_humidity;BME280_pressure;Samples;Min_cycle;Max_cycle;Signal;HPM_P1;HPM_P2
2023/09/18 00:00:26;;;;;;;27.38;3.35;;;;;;;;;;5098405;28;20031;-38
2023/09/18 00:02:53;;;;;;;14.38;3.22;;;;;;;;;;5095891;28;20024;-38
2023/09/18 00:05:20;;;;;;;20.52;3.55;;;;;;;;;;5102018;28;20047;-40
2023/09/18 00:07:47;;;;;;;21.50;4.28;;;;;;;;;;5109766;28;20027;-40
2023/09/18 00:10:14;;;;;;;23.17;2.90;;;;;;;;;;5096844;28;20493;-39
2023/09/18 00:12:41;;;;;;;24.00;3.10;;;;;;;;;;5091569;28;20500;-39
2023/09/18 00:15:08;;;;;;;24.95;3.30;;;;;;;;;;5089852;28;20115;-38
2023/09/18 00:17:36;;;;;;;25.73;3.10;;;;;;;;;;5101338;28;20032;-40
2023/09/18 00:20:07;;;;;;;25.63;3.55;;;;;;;;;;5096371;28;20382;-39
2023/09/18 00:22:34;;;;;;;20.77;2.92;;;;;;;;;;5110664;28;20028;-40
2023/09/18 00:25:02;;;;;;;20.90;2.97;;;;;;;;;;5103051;28;20063;-40
2023/09/18 00:27:29;;;;;;;21.95;3.15;;;;;;;;;;5104185;28;20059;-39
2023/09/18 00:29:56;;;;;;;19.92;3.95;;;;;;;;;;5096526;28;20031;-40
2023/09/18 00:32:23;;;;;;;18.75;3.47;;;;;;;;;;5095214;28;20028;-40
2023/09/18 00:34:51;;;;;;;28.73;3.35;;;;;;;;;;5104117;28;20058;-39
2023/09/18 00:37:18;;;;;;;27.42;4.20;;;;;;;;;;5106788;28;20035;-40
2023/09/18 00:39:45;;;;;;;22.40;4.05;;;;;;;;;;5096834;28;20107;-38
2023/09/18 00:42:17;;;;;;;23.52;3.58;;;;;;;;;;5096797;28;20024;-40
2023/09/18 00:44:44;;;;;;;;;;;;;;;;;;5094865;28;20031;-40
2023/09/18 00:47:12;;;;;;;23.52;4.47;;;;;;;;;;5113981;28;19907;-41
2023/09/18 00:49:40;;;;;;;36.63;4.30;;;;;;;;;;5114619;28;20085;-40
2023/09/18 00:52:08;;;;;;;19.95;3.65;;;;;;;;;;5101255;28;20054;-40
2023/09/18 00:54:36;;;;;;;27.90;4.72;;;;;;;;;;5098968;28;20032;-38
2023/09/18 00:57:03;;;;;;;26.25;4.63;;;;;;;;;;5111257;28;20032;-40
2023/09/18 00:59:31;;;;;;;20.98;3.53;;;;;;;;;;5097177;28;22360;-40
2023/09/18 01:01:58;;;;;;;20.90;4.13;;;;;;;;;;5098317;28;20093;-39
2023/09/18 01:04:28;;;;;;;24.20;4.32;;;;;;;;;;5100469;28;20035;-39
2023/09/18 01:06:56;;;;;;;22.58;3.85;;;;;;;;;;5089153;28;20488;-39
2023/09/18 01:09:24;;;;;;;16.15;3.65;;;;;;;;;;5094514;28;20101;-38
2023/09/18 01:12:09;;;;;;;18.25;3.47;;;;;;;;;;5104299;28;20031;-39
2023/09/18 01:14:45;;;;;;;21.10;4.07;;;;;;;;;;5090641;28;20536;-39
2023/09/18 01:17:13;;;;;;;21.02;4.47;;;;;;;;;;5098747;28;20077;-39
2023/09/18 01:19:42;;;;;;;22.30;4.40;;;;;;;;;;5100651;28;20047;-40
2023/09/18 01:22:10;;;;;;;21.25;4.10;;;;;;;;;;5094653;28;20058;-39
2023/09/18 01:24:38;;;;;;;17.33;3.72;;;;;;;;;;5088100;28;20031;-39
2023/09/18 01:27:06;;;;;;;18.58;4.07;;;;;;;;;;5095446;28;20087;-40
2023/09/18 01:29:34;;;;;;;24.42;3.75;;;;;;;;;;5108417;28;20053;-39
2023/09/18 01:32:01;;;;;;;24.85;4.03;;;;;;;;;;5092322;28;20524;-39
2023/09/18 01:37:31;;;;;;;23.23;3.65;;;;;;;;;;5085581;28;20044;-38
2023/09/18 01:40:06;;;;;;;17.33;3.20;;;;;;;;;;5105580;28;20024;-41
2023/09/18 01:42:34;;;;;;;16.73;2.90;;;;;;;;;;5103214;28;20103;-39
2023/09/18 01:45:01;;;;;;;17.65;2.92;;;;;;;;;;5079043;28;20423;-39
2023/09/18 01:47:28;;;;;;;13.65;2.90;;;;;;;;;;5092424;28;20031;-39
2023/09/18 01:49:56;;;;;;;15.88;3.30;;;;;;;;;;5105621;28;20036;-39
2023/09/18 01:52:23;;;;;;;14.95;2.72;;;;;;;;;;5109174;28;20084;-39
2023/09/18 01:54:51;;;;;;;14.02;2.75;;;;;;;;;;5113802;28;20043;-39
2023/09/18 01:57:18;;;;;;;18.80;2.92;;;;;;;;;;5113969;28;20036;-39
2023/09/18 01:59:45;;;;;;;20.63;2.88;;;;;;;;;;5107638;28;20389;-39
2023/09/18 02:02:12;;;;;;;17.45;2.58;;;;;;;;;;5098815;28;20028;-39
2023/09/18 02:04:40;;;;;;;15.93;2.58;;;;;;;;;;5098439;28;20663;-40
2023/09/18 02:07:07;;;;;;;12.40;2.72;;;;;;;;;;5097752;28;20084;-40
2023/09/18 02:09:34;;;;;;;11.73;2.38;;;;;;;;;;5098567;28;20028;-40
2023/09/18 02:12:02;;;;;;;12.70;2.15;;;;;;;;;;5107256;28;20027;-40
2023/09/18 02:14:31;;;;;;;12.98;2.63;;;;;;;;;;5112584;28;20027;-39
2023/09/18 02:16:58;;;;;;;13.18;2.30;;;;;;;;;;5104961;28;20115;-39
2023/09/18 02:19:26;;;;;;;12.20;2.67;;;;;;;;;;5113026;28;20428;-39
2023/09/18 02:21:53;;;;;;;13.93;2.65;;;;;;;;;;5112687;28;20085;-39
2023/09/18 02:24:20;;;;;;;8.75;2.35;;;;;;;;;;5112577;28;20040;-39
2023/09/18 02:26:47;;;;;;;10.23;1.83;;;;;;;;;;5109732;28;20092;-39
2023/09/18 02:29:14;;;;;;;11.80;1.70;;;;;;;;;;5111885;28;20022;-39
2023/09/18 02:31:42;;;;;;;9.48;2.08;;;;;;;;;;5110810;28;20047;-40
2023/09/18 02:34:09;;;;;;;10.38;2.10;;;;;;;;;;5100225;28;20039;-40
2023/09/18 02:36:36;;;;;;;10.50;2.60;;;;;;;;;;5106753;28;20028;-39
2023/09/18 02:39:04;;;;;;;7.13;2.08;;;;;;;;;;5113234;28;20469;-39
2023/09/18 02:41:31;;;;;;;8.30;1.67;;;;;;;;;;5113221;28;20055;-39
2023/09/18 02:43:58;;;;;;;6.75;1.90;;;;;;;;;;5107857;28;20024;-39
2023/09/18 02:46:25;;;;;;;11.70;2.38;;;;;;;;;;5113123;28;20465;-39
2023/09/18 02:48:52;;;;;;;12.35;2.08;;;;;;;;;;5113061;28;20031;-39
2023/09/18 02:51:19;;;;;;;8.35;2.20;;;;;;;;;;5113036;28;20111;-39
2023/09/18 02:53:46;;;;;;;7.57;1.85;;;;;;;;;;5112940;28;20032;-39
2023/09/18 02:56:14;;;;;;;10.50;2.13;;;;;;;;;;5112799;28;20032;-39
2023/09/18 02:58:41;;;;;;;9.75;2.00;;;;;;;;;;5112725;28;20552;-39
2023/09/18 03:01:08;;;;;;;8.70;2.17;;;;;;;;;;5112894;28;20103;-39
2023/09/18 03:03:35;;;;;;;9.25;1.80;;;;;;;;;;5104450;28;20028;-39
2023/09/18 03:06:06;;;;;;;6.55;2.05;;;;;;;;;;5112748;28;20105;-40
2023/09/18 03:08:33;;;;;;;7.28;1.63;;;;;;;;;;5112798;28;20031;-39
2023/09/18 03:11:00;;;;;;;10.60;1.90;;;;;;;;;;5112587;28;20032;-40
2023/09/18 03:13:28;;;;;;;6.63;1.40;;;;;;;;;;5112841;28;20031;-40
2023/09/18 03:15:56;;;;;;;9.00;1.98;;;;;;;;;;5112621;28;20089;-40
2023/09/18 03:18:23;;;;;;;7.20;1.40;;;;;;;;;;5112280;28;20059;-39
2023/09/18 03:20:50;;;;;;;7.78;1.90;;;;;;;;;;5112356;28;20028;-39
2023/09/18 03:23:17;;;;;;;5.82;1.48;;;;;;;;;;5112594;28;20058;-39
2023/09/18 03:25:44;;;;;;;4.65;1.35;;;;;;;;;;5112286;28;20455;-39
2023/09/18 03:28:11;;;;;;;6.05;1.42;;;;;;;;;;5112532;28;20033;-39
2023/09/18 03:30:38;;;;;;;6.43;1.45;;;;;;;;;;5112422;28;20032;-39
2023/09/18 03:33:05;;;;;;;7.90;1.60;;;;;;;;;;5112475;28;20461;-39
2023/09/18 03:35:33;;;;;;;8.15;1.65;;;;;;;;;;5112224;28;20085;-39
2023/09/18 03:38:00;;;;;;;6.40;1.90;;;;;;;;;;5112223;28;20063;-39
2023/09/18 03:40:27;;;;;;;7.40;2.00;;;;;;;;;;5112361;28;20039;-39
2023/09/18 03:42:54;;;;;;;7.80;1.75;;;;;;;;;;5112132;28;20140;-39
2023/09/18 03:45:21;;;;;;;7.05;1.60;;;;;;;;;;5112221;28;20081;-39
2023/09/18 03:47:50;;;;;;;6.03;1.40;;;;;;;;;;5111933;28;20039;-39
2023/09/18 03:50:17;;;;;;;9.68;1.73;;;;;;;;;;5112004;28;20032;-39
2023/09/18 03:52:44;;;;;;;6.95;1.63;;;;;;;;;;5111997;28;20070;-39
2023/09/18 03:55:11;;;;;;;7.00;1.33;;;;;;;;;;5111298;28;20481;-39
2023/09/18 03:57:40;;;;;;;6.00;1.60;;;;;;;;;;5112094;28;20031;-39
2023/09/18 04:00:08;;;;;;;4.95;1.50;;;;;;;;;;5112109;28;20036;-39
2023/09/18 04:02:35;;;;;;;3.75;1.10;;;;;;;;;;5111918;28;20028;-39
2023/09/18 04:05:03;;;;;;;5.03;1.40;;;;;;;;;;5111827;28;20639;-39
2023/09/18 04:07:31;;;;;;;9.10;1.67;;;;;;;;;;5111729;28;20043;-39
2023/09/18 04:09:58;;;;;;;4.55;1.30;;;;;;;;;;5111809;28;20043;-40
2023/09/18 04:12:25;;;;;;;3.75;1.40;;;;;;;;;;5111718;28;20039;-39
2023/09/18 04:14:52;;;;;;;5.93;1.20;;;;;;;;;;5111816;28;20019;-39
2023/09/18 04:17:21;;;;;;;6.20;1.52;;;;;;;;;;5111757;28;20510;-39
2023/09/18 04:19:48;;;;;;;7.00;1.20;;;;;;;;;;5111739;28;20048;-39
2023/09/18 04:22:15;;;;;;;5.38;1.58;;;;;;;;;;5111727;28;20024;-39
2023/09/18 04:24:42;;;;;;;6.43;1.60;;;;;;;;;;5111504;28;20028;-39
2023/09/18 04:27:09;;;;;;;5.05;1.42;;;;;;;;;;5111818;28;20027;-39
2023/09/18 04:29:36;;;;;;;3.33;1.10;;;;;;;;;;5111699;28;20039;-39
2023/09/18 04:32:05;;;;;;;6.85;1.42;;;;;;;;;;5111811;28;20073;-39
2023/09/18 04:34:32;;;;;;;4.28;1.00;;;;;;;;;;5111506;28;20035;-39
2023/09/18 04:36:59;;;;;;;3.97;1.27;;;;;;;;;;5111563;28;20047;-39
2023/09/18 04:39:26;;;;;;;4.15;1.27;;;;;;;;;;5111721;28;20486;-39
2023/09/18 04:41:53;;;;;;;6.15;1.35;;;;;;;;;;5111694;28;20077;-39
2023/09/18 04:44:20;;;;;;;5.72;1.50;;;;;;;;;;5111610;28;20058;-39
2023/09/18 04:46:48;;;;;;;5.53;1.25;;;;;;;;;;5111694;28;20019;-39
2023/09/18 04:49:15;;;;;;;3.55;1.10;;;;;;;;;;5111549;28;20097;-39
2023/09/18 04:51:43;;;;;;;3.03;1.08;;;;;;;;;;5111201;28;20101;-39
2023/09/18 04:54:11;;;;;;;4.88;1.45;;;;;;;;;;5111355;28;20065;-39
2023/09/18 04:56:38;;;;;;;5.68;1.27;;;;;;;;;;5111493;28;20096;-39
2023/09/18 04:59:05;;;;;;;3.30;1.23;;;;;;;;;;5111513;28;20031;-39
2023/09/18 05:01:32;;;;;;;6.18;1.23;;;;;;;;;;5111374;28;20035;-39
2023/09/18 05:03:59;;;;;;;2.50;0.90;;;;;;;;;;5111568;28;20024;-39
2023/09/18 05:06:25;;;;;;;4.82;1.20;;;;;;;;;;5112859;28;20106;-39
2023/09/18 05:08:54;;;;;;;3.17;0.93;;;;;;;;;;5115132;28;20089;-39
2023/09/18 05:11:21;;;;;;;3.60;1.10;;;;;;;;;;5114916;28;20051;-39
2023/09/18 05:13:49;;;;;;;4.97;1.20;;;;;;;;;;5115095;28;20453;-40
2023/09/18 05:16:16;;;;;;;2.53;0.77;;;;;;;;;;5114664;28;20442;-39
2023/09/18 05:18:43;;;;;;;2.83;0.93;;;;;;;;;;5114904;28;20057;-39
2023/09/18 05:21:11;;;;;;;6.90;1.50;;;;;;;;;;5114840;28;20024;-39
2023/09/18 05:23:38;;;;;;;4.28;1.17;;;;;;;;;;5114913;28;20034;-39
2023/09/18 05:26:05;;;;;;;3.50;0.77;;;;;;;;;;5114559;28;20028;-39
2023/09/18 05:28:32;;;;;;;4.22;0.95;;;;;;;;;;5114743;28;20110;-39
2023/09/18 05:31:00;;;;;;;4.95;0.82;;;;;;;;;;5114722;28;20066;-39
2023/09/18 05:33:27;;;;;;;3.78;0.90;;;;;;;;;;5114456;28;20492;-39
2023/09/18 05:35:54;;;;;;;3.28;1.10;;;;;;;;;;5114604;28;20023;-39
2023/09/18 05:38:21;;;;;;;3.70;1.10;;;;;;;;;;5114554;28;20037;-39
2023/09/18 05:40:48;;;;;;;3.40;1.15;;;;;;;;;;5114545;28;20059;-39
2023/09/18 05:43:15;;;;;;;2.53;1.00;;;;;;;;;;5114300;28;20408;-39
2023/09/18 05:45:42;;;;;;;2.17;1.00;;;;;;;;;;5114330;28;20095;-39
2023/09/18 05:48:09;;;;;;;3.00;0.95;;;;;;;;;;5114229;28;20099;-39
2023/09/18 05:50:37;;;;;;;4.50;1.17;;;;;;;;;;5114328;28;20027;-39
2023/09/18 05:53:04;;;;;;;2.38;0.90;;;;;;;;;;5114154;28;20051;-39
2023/09/18 05:55:31;;;;;;;4.22;0.95;;;;;;;;;;5114035;28;20533;-39
2023/09/18 05:57:58;;;;;;;2.75;0.90;;;;;;;;;;5113986;28;20408;-39
2023/09/18 06:00:26;;;;;;;4.03;0.88;;;;;;;;;;5114143;28;20420;-39
2023/09/18 06:02:53;;;;;;;1.75;0.60;;;;;;;;;;5112521;28;20127;-39
2023/09/18 06:05:24;;;;;;;2.63;0.90;;;;;;;;;;5113960;28;20020;-39
2023/09/18 06:07:51;;;;;;;3.88;1.10;;;;;;;;;;5113783;28;20031;-39
2023/09/18 06:10:18;;;;;;;3.67;1.08;;;;;;;;;;5113948;28;20028;-39
2023/09/18 06:12:45;;;;;;;3.45;1.00;;;;;;;;;;5113836;28;20678;-39
2023/09/18 06:15:13;;;;;;;2.83;1.05;;;;;;;;;;5113734;28;20019;-39
2023/09/18 06:17:40;;;;;;;2.75;0.90;;;;;;;;;;5112874;28;20433;-39
2023/09/18 06:20:09;;;;;;;4.57;0.93;;;;;;;;;;5113542;28;20397;-40
2023/09/18 06:22:38;;;;;;;2.65;0.80;;;;;;;;;;5113553;28;20027;-39
2023/09/18 06:25:05;;;;;;;2.30;0.80;;;;;;;;;;5113263;28;20030;-39
2023/09/18 06:27:32;;;;;;;1.77;0.77;;;;;;;;;;5113634;28;20024;-39
2023/09/18 06:29:59;;;;;;;3.25;0.75;;;;;;;;;;5113575;28;20039;-39
2023/09/18 06:32:26;;;;;;;2.20;0.70;;;;;;;;;;5113463;28;20070;-39
2023/09/18 06:34:53;;;;;;;2.15;0.70;;;;;;;;;;5113327;28;20489;-39
2023/09/18 06:37:20;;;;;;;2.70;0.93;;;;;;;;;;5113286;28;20020;-39
2023/09/18 06:39:47;;;;;;;3.17;0.73;;;;;;;;;;5113256;28;20102;-39
2023/09/18 06:42:14;;;;;;;1.40;0.50;;;;;;;;;;5113388;28;20028;-39
2023/09/18 06:44:45;;;;;;;2.40;1.00;;;;;;;;;;5113151;28;20127;-40
2023/09/18 06:47:14;;;;;;;5.53;0.88;;;;;;;;;;5113311;28;20024;-40
2023/09/18 06:49:42;;;;;;;1.90;0.70;;;;;;;;;;5113068;28;20063;-40
2023/09/18 06:52:10;;;;;;;1.38;0.70;;;;;;;;;;5106391;28;20051;-39
2023/09/18 06:54:37;;;;;;;2.40;0.63;;;;;;;;;;5092694;28;20054;-39
2023/09/18 06:57:04;;;;;;;2.28;0.80;;;;;;;;;;5092614;28;20386;-39
2023/09/18 06:59:33;;;;;;;2.65;0.80;;;;;;;;;;5092590;28;20089;-39
2023/09/18 07:02:01;;;;;;;1.50;0.65;;;;;;;;;;5092455;28;20036;-39
2023/09/18 07:04:28;;;;;;;1.73;0.68;;;;;;;;;;5092456;28;20024;-39
2023/09/18 07:06:56;;;;;;;2.58;0.77;;;;;;;;;;5092569;28;20027;-39
2023/09/18 07:09:24;;;;;;;1.48;0.90;;;;;;;;;;5092220;28;20067;-39
2023/09/18 07:11:51;;;;;;;4.25;0.70;;;;;;;;;;5092226;28;20047;-39
2023/09/18 07:14:18;;;;;;;2.30;0.80;;;;;;;;;;5092301;28;20020;-39
2023/09/18 07:16:45;;;;;;;2.50;0.50;;;;;;;;;;5092337;28;20070;-40
2023/09/18 07:19:16;;;;;;;2.58;0.80;;;;;;;;;;5092016;28;20036;-39
2023/09/18 07:21:43;;;;;;;2.08;0.77;;;;;;;;;;5092009;28;20044;-39
2023/09/18 07:24:16;;;;;;;1.73;0.70;;;;;;;;;;5091964;28;20382;-39
2023/09/18 07:26:46;;;;;;;2.08;0.60;;;;;;;;;;5092019;28;20440;-39
2023/09/18 07:29:14;;;;;;;2.03;0.70;;;;;;;;;;5091870;28;20036;-40
2023/09/18 07:31:42;;;;;;;1.98;0.60;;;;;;;;;;5091926;28;20123;-40
2023/09/18 07:34:10;;;;;;;1.88;0.52;;;;;;;;;;5091805;28;20036;-40
2023/09/18 07:36:37;;;;;;;3.50;0.73;;;;;;;;;;5092087;28;20047;-40
2023/09/18 07:39:04;;;;;;;1.92;0.50;;;;;;;;;;5091900;28;20031;-39
2023/09/18 07:41:32;;;;;;;2.35;0.70;;;;;;;;;;5091977;28;20059;-39
2023/09/18 07:43:59;;;;;;;3.08;0.45;;;;;;;;;;5091829;28;20860;-39
2023/09/18 07:46:26;;;;;;;1.67;0.70;;;;;;;;;;5091935;28;20420;-39
2023/09/18 07:48:53;;;;;;;1.58;0.75;;;;;;;;;;5091797;28;20028;-39
2023/09/18 07:51:20;;;;;;;2.58;0.68;;;;;;;;;;5091797;28;20051;-39
2023/09/18 07:53:48;;;;;;;1.10;0.57;;;;;;;;;;5111401;28;20114;-39
2023/09/18 07:56:15;;;;;;;1.67;0.70;;;;;;;;;;5112123;28;20034;-39
2023/09/18 07:58:42;;;;;;;1.95;0.60;;;;;;;;;;5112025;28;20755;-40
2023/09/18 08:01:10;;;;;;;0.70;0.40;;;;;;;;;;5112058;28;20036;-39
2023/09/18 08:03:37;;;;;;;2.30;0.60;;;;;;;;;;5111989;28;20040;-40
2023/09/18 08:06:04;;;;;;;2.60;0.93;;;;;;;;;;5111796;28;20562;-40
2023/09/18 08:08:33;;;;;;;1.67;0.50;;;;;;;;;;5111897;28;20031;-40
2023/09/18 08:11:02;;;;;;;2.10;0.60;;;;;;;;;;5111895;28;20118;-39
2023/09/18 08:13:29;;;;;;;2.30;0.55;;;;;;;;;;5111962;28;20027;-39
2023/09/18 08:15:56;;;;;;;1.00;0.50;;;;;;;;;;5111823;28;20035;-40
2023/09/18 08:18:26;;;;;;;3.47;0.77;;;;;;;;;;5111749;28;20059;-40
2023/09/18 08:20:54;;;;;;;1.70;0.60;;;;;;;;;;5112045;28;20116;-39
2023/09/18 08:23:21;;;;;;;1.80;0.60;;;;;;;;;;5111746;28;20035;-39
2023/09/18 08:25:51;;;;;;;1.75;0.52;;;;;;;;;;5111706;28;20024;-40
2023/09/18 08:28:18;;;;;;;2.08;0.60;;;;;;;;;;5111774;28;20035;-40
2023/09/18 08:30:47;;;;;;;2.13;0.60;;;;;;;;;;5111774;28;20055;-39
2023/09/18 08:33:15;;;;;;;1.23;0.57;;;;;;;;;;5111677;28;20485;-39
2023/09/18 08:35:42;;;;;;;2.33;0.40;;;;;;;;;;5111629;28;20031;-39
2023/09/18 08:38:09;;;;;;;1.70;0.50;;;;;;;;;;5111712;28;20512;-39
2023/09/18 08:40:36;;;;;;;5.72;0.70;;;;;;;;;;5111905;28;20059;-39
2023/09/18 08:43:04;;;;;;;1.48;0.55;;;;;;;;;;5115487;28;20078;-39
2023/09/18 08:45:37;;;;;;;1.77;0.60;;;;;;;;;;5115505;28;20047;-40
2023/09/18 08:48:04;;;;;;;0.75;0.43;;;;;;;;;;5115469;28;20038;-39
2023/09/18 08:50:31;;;;;;;0.77;0.50;;;;;;;;;;5115527;28;20020;-39
2023/09/18 08:52:58;;;;;;;0.63;0.32;;;;;;;;;;5101749;28;20032;-39
2023/09/18 08:55:26;;;;;;;0.90;0.40;;;;;;;;;;5094776;28;20028;-40
2023/09/18 08:57:54;;;;;;;1.23;0.50;;;;;;;;;;5094739;28;20428;-40
2023/09/18 09:00:21;;;;;;;4.55;0.60;;;;;;;;;;5094829;28;20067;-40
2023/09/18 09:02:52;;;;;;;1.92;0.52;;;;;;;;;;5094718;28;20036;-39
2023/09/18 09:05:19;;;;;;;2.15;0.50;;;;;;;;;;5094680;28;20035;-40
2023/09/18 09:07:46;;;;;;;2.75;0.40;;;;;;;;;;5094746;28;20050;-40
2023/09/18 09:10:13;;;;;;;1.55;0.40;;;;;;;;;;5094618;28;20024;-39
2023/09/18 09:12:49;;;;;;;1.48;0.35;;;;;;;;;;5094704;28;20055;-40
2023/09/18 09:15:16;;;;;;;0.77;0.40;;;;;;;;;;5075785;28;20040;-39
2023/09/18 09:17:46;;;;;;;1.83;0.40;;;;;;;;;;5090171;28;20047;-39
2023/09/18 09:20:14;;;;;;;1.38;0.47;;;;;;;;;;5094592;28;20043;-39
2023/09/18 09:22:42;;;;;;;0.95;0.35;;;;;;;;;;5094352;28;20051;-39
2023/09/18 09:25:21;;;;;;;4.75;0.60;;;;;;;;;;5094372;28;20367;-39
2023/09/18 09:27:48;;;;;;;3.92;0.60;;;;;;;;;;5094017;28;20363;-40
2023/09/18 09:30:23;;;;;;;2.53;0.47;;;;;;;;;;5094075;28;20069;-39
2023/09/18 09:32:51;;;;;;;3.60;0.70;;;;;;;;;;5093208;28;20089;-39
2023/09/18 09:35:21;;;;;;;2.00;0.55;;;;;;;;;;5094298;28;20420;-39
2023/09/18 09:37:51;;;;;;;3.20;0.40;;;;;;;;;;5092833;28;20087;-39
2023/09/18 09:40:19;;;;;;;2.63;0.70;;;;;;;;;;5092781;28;20482;-39
2023/09/18 09:42:47;;;;;;;4.40;0.73;;;;;;;;;;5087622;28;20036;-38
2023/09/18 09:45:18;;;;;;;2.35;0.68;;;;;;;;;;5091930;28;20482;-39
2023/09/18 09:47:45;;;;;;;4.82;0.60;;;;;;;;;;5092506;28;20024;-38
2023/09/18 09:50:15;;;;;;;2.05;0.70;;;;;;;;;;5092190;28;20040;-38
2023/09/18 09:52:44;;;;;;;9.43;0.90;;;;;;;;;;5100266;28;20051;-38
2023/09/18 09:55:25;;;;;;;4.93;0.80;;;;;;;;;;5113564;28;20045;-39
2023/09/18 09:57:59;;;;;;;6.15;0.93;;;;;;;;;;5112791;27;20503;-39
2023/09/18 10:00:36;;;;;;;15.27;1.30;;;;;;;;;;5120298;27;20034;-38
2023/09/18 10:03:05;;;;;;;8.60;1.50;;;;;;;;;;5122040;27;20119;-38
2023/09/18 10:05:39;;;;;;;12.80;1.80;;;;;;;;;;5104256;27;20032;-40
2023/09/18 10:08:11;;;;;;;11.93;1.50;;;;;;;;;;5123138;27;20015;-38
2023/09/18 10:10:40;;;;;;;8.38;1.83;;;;;;;;;;5119077;27;20031;-39
2023/09/18 10:13:09;;;;;;;7.65;1.02;;;;;;;;;;5123332;27;20106;-39
2023/09/18 10:15:42;;;;;;;6.90;1.60;;;;;;;;;;5124262;27;20103;-38
2023/09/18 10:18:23;;;;;;;6.85;1.50;;;;;;;;;;5114039;27;20036;-38
2023/09/18 10:20:52;;;;;;;14.07;2.17;;;;;;;;;;5122573;27;20031;-38
2023/09/18 10:23:36;;;;;;;12.93;2.05;;;;;;;;;;5122272;27;20036;-39
2023/09/18 10:26:04;;;;;;;30.35;2.50;;;;;;;;;;5120321;27;20032;-38
2023/09/18 10:28:32;;;;;;;26.02;3.25;;;;;;;;;;5122627;27;20047;-39
2023/09/18 10:30:59;;;;;;;16.27;2.58;;;;;;;;;;5105828;27;20043;-39
2023/09/18 10:33:27;;;;;;;26.15;3.38;;;;;;;;;;5122004;27;20096;-39
2023/09/18 10:35:54;;;;;;;19.80;2.83;;;;;;;;;;5118624;27;20392;-38
2023/09/18 10:38:22;;;;;;;23.17;2.70;;;;;;;;;;5113381;28;20514;-38
2023/09/18 10:40:49;;;;;;;16.40;2.88;;;;;;;;;;5114985;27;20128;-38
2023/09/18 10:43:18;;;;;;;12.15;2.42;;;;;;;;;;5125271;27;20031;-38
2023/09/18 10:45:45;;;;;;;20.90;2.92;;;;;;;;;;5123515;27;20028;-38
2023/09/18 10:48:13;;;;;;;14.48;2.75;;;;;;;;;;5115899;27;20080;-39
2023/09/18 10:50:41;;;;;;;17.17;2.63;;;;;;;;;;5113067;28;20485;-39
2023/09/18 10:53:08;;;;;;;16.63;2.42;;;;;;;;;;5112764;28;20047;-39
2023/09/18 10:55:36;;;;;;;18.83;2.80;;;;;;;;;;5112984;28;20027;-39
2023/09/18 10:58:03;;;;;;;13.20;2.40;;;;;;;;;;5112807;28;20047;-38
2023/09/18 11:00:31;;;;;;;22.40;3.05;;;;;;;;;;5112919;28;20036;-39
2023/09/18 11:03:20;;;;;;;19.48;2.92;;;;;;;;;;5112839;28;20035;-38
2023/09/18 11:05:47;;;;;;;29.13;3.50;;;;;;;;;;5112746;28;20047;-38
2023/09/18 11:08:40;;;;;;;31.30;4.57;;;;;;;;;;5112799;28;20084;-38
2023/09/18 11:11:19;;;;;;;28.60;3.55;;;;;;;;;;5107398;28;20043;-39
2023/09/18 11:13:47;;;;;;;21.52;3.53;;;;;;;;;;5112538;28;20036;-38
2023/09/18 11:16:16;;;;;;;21.92;3.42;;;;;;;;;;5125568;27;20027;-39
2023/09/18 11:18:43;;;;;;;27.48;3.67;;;;;;;;;;5131829;27;20035;-39
2023/09/18 11:21:13;;;;;;;23.00;4.10;;;;;;;;;;5121283;27;20521;-38
2023/09/18 11:23:43;;;;;;;24.25;3.78;;;;;;;;;;5121691;27;20027;-39
2023/09/18 11:26:11;;;;;;;31.45;3.95;;;;;;;;;;5132886;27;20031;-38
2023/09/18 11:28:39;;;;;;;20.38;3.58;;;;;;;;;;5131224;27;20055;-38
2023/09/18 11:31:07;;;;;;;28.20;3.58;;;;;;;;;;5120141;27;20039;-39
2023/09/18 11:33:43;;;;;;;31.25;4.15;;;;;;;;;;5119516;27;20388;-38
2023/09/18 11:36:14;;;;;;;25.50;3.60;;;;;;;;;;5122179;27;20038;-37
2023/09/18 11:38:54;;;;;;;34.42;4.07;;;;;;;;;;5113348;27;20092;-39
2023/09/18 11:41:25;;;;;;;30.83;3.80;;;;;;;;;;5115876;27;20027;-40
2023/09/18 11:43:53;;;;;;;32.90;4.15;;;;;;;;;;5110450;28;20019;-40
2023/09/18 11:46:20;;;;;;;23.00;3.75;;;;;;;;;;5111803;28;20027;-40
2023/09/18 11:48:51;;;;;;;28.98;3.97;;;;;;;;;;5112202;28;20019;-40
2023/09/18 11:51:24;;;;;;;35.88;4.38;;;;;;;;;;5111320;28;20051;-41
2023/09/18 11:53:54;;;;;;;23.10;3.72;;;;;;;;;;5110491;28;20096;-40
2023/09/18 11:56:22;;;;;;;31.15;4.93;;;;;;;;;;5111362;28;20032;-39
2023/09/18 11:58:49;;;;;;;38.22;4.38;;;;;;;;;;5111574;28;20046;-41
2023/09/18 12:01:16;;;;;;;24.17;4.00;;;;;;;;;;5097057;28;20052;-39
2023/09/18 12:03:44;;;;;;;25.50;3.90;;;;;;;;;;5111461;28;20530;-41
2023/09/18 12:06:15;;;;;;;28.38;4.18;;;;;;;;;;5110265;28;20039;-40
2023/09/18 12:08:42;;;;;;;30.73;4.40;;;;;;;;;;5111434;28;20081;-41
2023/09/18 12:11:09;;;;;;;46.22;4.90;;;;;;;;;;5112028;28;20110;-41
2023/09/18 12:13:37;;;;;;;45.65;4.93;;;;;;;;;;5112083;28;20020;-42
2023/09/18 12:16:05;;;;;;;41.67;4.53;;;;;;;;;;5112778;28;20066;-41
2023/09/18 12:18:37;;;;;;;58.40;6.80;;;;;;;;;;5115945;28;20115;-42
2023/09/18 12:21:07;;;;;;;64.95;6.50;;;;;;;;;;5116256;28;20059;-40
2023/09/18 12:23:42;;;;;;;53.15;6.63;;;;;;;;;;5115534;28;20066;-39
2023/09/18 12:26:10;;;;;;;68.55;7.72;;;;;;;;;;5115747;28;20067;-39
2023/09/18 12:28:37;;;;;;;45.50;6.07;;;;;;;;;;5111921;27;20027;-37
2023/09/18 12:31:07;;;;;;;44.97;4.93;;;;;;;;;;5136194;27;20027;-38
2023/09/18 12:33:36;;;;;;;37.15;4.88;;;;;;;;;;5136124;27;20092;-39
2023/09/18 12:36:04;;;;;;;41.47;5.70;;;;;;;;;;5136128;27;20072;-39
2023/09/18 12:38:32;;;;;;;56.80;6.70;;;;;;;;;;5136070;27;20027;-39
2023/09/18 12:41:06;;;;;;;55.05;6.43;;;;;;;;;;5136086;27;20532;-39
2023/09/18 12:43:37;;;;;;;54.15;4.82;;;;;;;;;;5135974;27;20027;-39
2023/09/18 12:46:05;;;;;;;34.83;4.95;;;;;;;;;;5136004;27;20106;-39
2023/09/18 12:48:32;;;;;;;18.83;3.45;;;;;;;;;;5136069;27;20050;-39
2023/09/18 12:51:06;;;;;;;30.75;3.75;;;;;;;;;;5131380;27;20035;-39
2023/09/18 12:53:33;;;;;;;32.33;3.90;;;;;;;;;;5114870;28;20047;-40
2023/09/18 12:56:27;;;;;;;36.30;3.88;;;;;;;;;;5115266;28;20401;-39
2023/09/18 12:58:58;;;;;;;33.60;4.47;;;;;;;;;;5102603;28;20462;-39
2023/09/18 13:01:25;;;;;;;31.02;4.22;;;;;;;;;;5106583;28;20036;-39
2023/09/18 13:04:05;;;;;;;29.10;3.72;;;;;;;;;;5108003;28;20101;-38
2023/09/18 13:06:32;;;;;;;24.00;3.47;;;;;;;;;;5113514;28;20431;-38
2023/09/18 13:09:23;;;;;;;27.63;3.88;;;;;;;;;;5114749;28;20035;-38
2023/09/18 13:11:54;;;;;;;27.60;3.38;;;;;;;;;;5114762;28;20499;-38
2023/09/18 13:14:21;;;;;;;20.73;3.33;;;;;;;;;;5114713;28;20431;-38
2023/09/18 13:16:48;;;;;;;31.17;3.72;;;;;;;;;;5114913;28;20040;-40
2023/09/18 13:19:15;;;;;;;21.15;3.83;;;;;;;;;;5114896;28;20054;-40
2023/09/18 13:21:49;;;;;;;20.25;3.60;;;;;;;;;;5114533;28;20485;-39
2023/09/18 13:24:32;;;;;;;24.95;3.47;;;;;;;;;;5114685;28;20076;-39
2023/09/18 13:26:59;;;;;;;21.23;2.88;;;;;;;;;;5126176;27;20043;-40
2023/09/18 13:29:26;;;;;;;26.17;3.33;;;;;;;;;;5134762;27;20034;-39
2023/09/18 13:31:53;;;;;;;19.00;3.45;;;;;;;;;;5134364;27;20092;-37
2023/09/18 13:34:21;;;;;;;27.73;3.38;;;;;;;;;;5116367;27;20024;-37
2023/09/18 13:36:49;;;;;;;26.73;3.15;;;;;;;;;;5114320;28;20023;-38
2023/09/18 13:39:18;;;;;;;18.48;3.00;;;;;;;;;;5113936;27;20032;-38
2023/09/18 13:41:46;;;;;;;31.48;3.88;;;;;;;;;;5112948;28;20561;-36
2023/09/18 13:44:13;;;;;;;40.30;4.63;;;;;;;;;;5113954;28;20032;-36
2023/09/18 13:46:41;;;;;;;24.23;3.95;;;;;;;;;;5114095;27;20050;-38
2023/09/18 13:49:08;;;;;;;28.23;3.78;;;;;;;;;;5118848;27;20027;-37
2023/09/18 13:51:35;;;;;;;20.92;3.30;;;;;;;;;;5130516;27;20472;-35
2023/09/18 13:54:03;;;;;;;23.30;2.85;;;;;;;;;;5134496;27;20050;-37
2023/09/18 13:56:30;;;;;;;16.23;2.92;;;;;;;;;;5134447;27;20057;-40
2023/09/18 13:58:58;;;;;;;14.63;2.95;;;;;;;;;;5134155;27;20031;-35
2023/09/18 14:01:26;;;;;;;16.38;2.42;;;;;;;;;;5133384;27;20541;-35
2023/09/18 14:03:54;;;;;;;12.02;2.53;;;;;;;;;;5134046;27;20058;-39
2023/09/18 14:06:21;;;;;;;18.50;3.15;;;;;;;;;;5134517;27;20481;-39
2023/09/18 14:08:48;;;;;;;20.33;2.58;;;;;;;;;;5134065;27;20118;-39
2023/09/18 14:11:15;;;;;;;14.60;3.10;;;;;;;;;;5134041;27;20538;-38
2023/09/18 14:13:42;;;;;;;12.35;2.67;;;;;;;;;;5132747;27;20031;-37
2023/09/18 14:16:10;;;;;;;15.10;2.33;;;;;;;;;;5133606;27;20027;-38
2023/09/18 14:18:38;;;;;;;17.08;2.63;;;;;;;;;;5134042;27;20494;-37
2023/09/18 14:21:06;;;;;;;15.55;2.95;;;;;;;;;;5133622;27;20400;-38
2023/09/18 14:23:33;;;;;;;16.67;2.42;;;;;;;;;;5131930;27;20039;-38
2023/09/18 14:26:00;;;;;;;12.90;2.50;;;;;;;;;;5134104;27;20038;-39
2023/09/18 14:28:27;;;;;;;33.97;3.97;;;;;;;;;;5133840;27;20069;-39
2023/09/18 14:30:54;;;;;;;18.10;3.00;;;;;;;;;;5133827;27;20094;-36
2023/09/18 14:33:22;;;;;;;19.65;2.60;;;;;;;;;;5132179;27;20031;-37
2023/09/18 14:35:49;;;;;;;18.17;2.80;;;;;;;;;;5121895;27;20512;-38
2023/09/18 14:38:16;;;;;;;23.23;2.58;;;;;;;;;;5124793;27;20051;-38
2023/09/18 14:40:43;;;;;;;21.17;2.80;;;;;;;;;;5127183;27;20035;-38
2023/09/18 14:43:11;;;;;;;16.75;2.55;;;;;;;;;;5126719;27;20469;-38
2023/09/18 14:45:39;;;;;;;10.98;2.30;;;;;;;;;;5121306;27;20115;-38